»·PEaware :: N120SU KGCN-KLAS

N120SU :: KGCN-KLAS

FLIGHT INFORMATION

Flight Status: Arrived
Operator: Privately registered:
United States
More flights under this callsign
Pilot: Oklahoma State Flight Center (8673)
Aircraft: CESSNA 172 SKYHAWK
(C172)
More flights by this aircraft type
Origin: KGCN Grand Canyon Natl Park
United States
Destination: KLAS McCarran Intl
United States
More flights between these airports :: More routes between these airports
Route: +PARKS4 PGS V562 LAS
File this flight plan on PilotEdge
Remarks: IFR training
Altitude:
(Current/Filed)
12,000ft
Speed:
(Current/Filed)
110kts
Departed: 31-Jul-18 09:26 AM
Arrived: 31-Jul-18 10:52 AM
Distance/Time
Traveled:
146nm/1:26
Distance/Time
To Go:
Arrived

Flight Plot

Page will automatically refresh every two minutes.

Flight plan parsing failed; only flown route is shown


Map Options




Map Legend


Flown Route
Filed Route
Departure Airport
Arrival Airport
Navaid (VOR, NDB)
Fix

Horizontal Profiles

Position Reports

Time Latitude Longitude Heading Altitude Ground
Speed
31-Jul-18 09:07 36.172264 -97.086878 178 1003ft 0kts
31-Jul-18 09:08 36.172264 -97.086878 178 1003ft 0kts
31-Jul-18 09:09 36.172264 -97.086878 178 1003ft 0kts
31-Jul-18 09:10 35.961729 -112.137066 220 6612ft 0kts
31-Jul-18 09:11 35.961729 -112.137066 220 6612ft 0kts
31-Jul-18 09:12 35.961729 -112.137066 220 6612ft 0kts
31-Jul-18 09:13 35.961398 -112.137140 148 6612ft 8kts
31-Jul-18 09:14 35.961327 -112.136643 280 6612ft 0kts
31-Jul-18 09:15 35.961327 -112.136644 280 6612ft 0kts
31-Jul-18 09:16 35.961327 -112.136644 280 6612ft 0kts
31-Jul-18 09:17 35.961327 -112.136645 280 6612ft 0kts
31-Jul-18 09:18 35.961327 -112.136646 280 6612ft 0kts
31-Jul-18 09:19 35.961328 -112.136647 280 6612ft 0kts
31-Jul-18 09:20 35.961328 -112.136647 280 6612ft 0kts
31-Jul-18 09:21 35.961328 -112.136648 280 6612ft 0kts
31-Jul-18 09:22 35.961328 -112.136649 280 6612ft 0kts
31-Jul-18 09:23 35.961328 -112.136650 280 6612ft 0kts
31-Jul-18 09:24 35.961328 -112.136651 280 6612ft 0kts
31-Jul-18 09:25 35.961328 -112.136651 280 6612ft 0kts
31-Jul-18 09:26 35.961342 -112.136846 271 6612ft 9kts
31-Jul-18 09:27 35.951154 -112.148749 220 6761ft 68kts
31-Jul-18 09:28 35.936817 -112.165317 223 7187ft 75kts
31-Jul-18 09:29 35.922035 -112.184193 221 7732ft 78kts
31-Jul-18 09:30 35.924922 -112.211935 280 8297ft 83kts
31-Jul-18 09:31 35.930794 -112.241037 279 8790ft 87kts
31-Jul-18 09:32 35.929884 -112.270342 260 9267ft 86kts
31-Jul-18 09:33 35.924800 -112.299126 250 9851ft 83kts
31-Jul-18 09:34 35.917389 -112.326158 248 10364ft 83kts
31-Jul-18 09:35 35.911215 -112.353920 252 10836ft 84kts
31-Jul-18 09:36 35.904439 -112.381474 246 11263ft 84kts
31-Jul-18 09:37 35.897635 -112.409138 250 11662ft 84kts
31-Jul-18 09:38 35.889832 -112.442988 251 11693ft 120kts
31-Jul-18 09:39 35.879866 -112.484563 251 11674ft 128kts
31-Jul-18 09:40 35.870034 -112.526512 252 11674ft 127kts
31-Jul-18 09:41 35.860617 -112.568517 252 11675ft 127kts
31-Jul-18 09:42 35.851225 -112.610439 252 11675ft 126kts
31-Jul-18 09:43 35.841856 -112.652295 252 11675ft 126kts
31-Jul-18 09:44 35.832415 -112.693615 251 11679ft 129kts
31-Jul-18 09:45 35.822081 -112.736672 251 11674ft 130kts
31-Jul-18 09:46 35.811817 -112.779494 251 11675ft 130kts
31-Jul-18 09:47 35.801610 -112.822124 251 11675ft 129kts
31-Jul-18 09:48 35.790619 -112.864900 251 11555ft 130kts
31-Jul-18 09:49 35.779553 -112.906028 251 11474ft 129kts
31-Jul-18 09:50 35.769681 -112.949015 252 11438ft 110kts
31-Jul-18 09:51 35.763248 -112.979809 251 11836ft 75kts
31-Jul-18 09:52 35.759654 -113.002218 250 11867ft 63kts
31-Jul-18 09:53 35.756367 -113.023467 241 11753ft 62kts
31-Jul-18 09:54 35.752929 -113.049033 247 11887ft 81kts
31-Jul-18 09:55 35.744788 -113.078318 249 11962ft 114kts
31-Jul-18 09:56 35.734048 -113.118418 249 11924ft 125kts
31-Jul-18 09:57 35.723073 -113.159286 249 11924ft 126kts
31-Jul-18 09:58 35.712061 -113.200309 249 11924ft 126kts
31-Jul-18 09:59 35.701115 -113.241108 249 11924ft 126kts
31-Jul-18 10:00 35.690100 -113.282181 249 11924ft 126kts
31-Jul-18 10:01 35.679154 -113.323018 249 11924ft 126kts
31-Jul-18 10:02 35.668184 -113.363959 249 11924ft 126kts
31-Jul-18 10:03 35.657204 -113.404957 249 11924ft 126kts
31-Jul-18 10:04 35.646265 -113.445822 249 11924ft 126kts
31-Jul-18 10:05 35.635316 -113.486744 249 11924ft 126kts
31-Jul-18 10:06 35.624341 -113.527783 249 11924ft 126kts
31-Jul-18 10:07 35.621017 -113.568410 305 11938ft 128kts
31-Jul-18 10:08 35.649424 -113.596003 319 11924ft 131kts
31-Jul-18 10:09 35.673609 -113.629271 306 11924ft 130kts
31-Jul-18 10:10 35.696326 -113.664059 301 11923ft 130kts
31-Jul-18 10:11 35.715712 -113.701816 300 11923ft 130kts
31-Jul-18 10:12 35.733650 -113.738968 300 12039ft 123kts
31-Jul-18 10:13 35.753484 -113.774818 303 12046ft 128kts
31-Jul-18 10:14 35.774275 -113.810950 303 12044ft 129kts
31-Jul-18 10:15 35.795139 -113.847212 303 12044ft 130kts
31-Jul-18 10:16 35.816075 -113.883591 303 12044ft 130kts
31-Jul-18 10:17 35.836973 -113.919898 303 12044ft 130kts
31-Jul-18 10:18 35.857884 -113.956215 303 12044ft 130kts
31-Jul-18 10:19 35.878918 -113.992744 303 12045ft 131kts
31-Jul-18 10:20 35.900119 -114.029590 303 12044ft 133kts
31-Jul-18 10:21 35.921706 -114.067117 303 12044ft 134kts
31-Jul-18 10:22 35.943302 -114.104656 303 12044ft 134kts
31-Jul-18 10:23 35.964899 -114.142188 303 12044ft 134kts
31-Jul-18 10:24 35.987700 -114.181933 303 11337ft 152kts
31-Jul-18 10:25 36.012745 -114.225787 303 10347ft 158kts
31-Jul-18 10:26 36.036374 -114.267022 303 9321ft 136kts
31-Jul-18 10:27 36.054957 -114.305900 290 8317ft 129kts
31-Jul-18 10:28 36.067299 -114.341692 290 8012ft 93kts
31-Jul-18 10:29 36.076162 -114.365608 290 8034ft 69kts
31-Jul-18 10:30 36.084698 -114.387832 290 8068ft 77kts
31-Jul-18 10:31 36.095156 -114.417268 290 8073ft 114kts
31-Jul-18 10:32 36.108731 -114.456991 290 8047ft 131kts
31-Jul-18 10:33 36.123094 -114.499227 290 8044ft 133kts
31-Jul-18 10:34 36.137564 -114.541790 290 8044ft 134kts
31-Jul-18 10:35 36.152037 -114.584345 290 8044ft 134kts
31-Jul-18 10:36 36.166513 -114.626881 290 7336ft 130kts
31-Jul-18 10:37 36.180451 -114.667671 290 6338ft 128kts
31-Jul-18 10:38 36.194087 -114.707459 290 5555ft 115kts
31-Jul-18 10:39 36.207482 -114.746438 290 5550ft 132kts
31-Jul-18 10:40 36.222106 -114.789360 290 5545ft 137kts
31-Jul-18 10:41 36.236892 -114.832764 290 5543ft 135kts
31-Jul-18 10:42 36.251550 -114.875745 290 5544ft 135kts
31-Jul-18 10:43 36.266187 -114.918640 291 5544ft 135kts
31-Jul-18 10:44 36.278487 -114.962139 255 5538ft 132kts
31-Jul-18 10:45 36.263273 -115.003149 241 5544ft 131kts
31-Jul-18 10:46 36.240750 -115.032035 211 5522ft 99kts
31-Jul-18 10:47 36.219600 -115.051216 220 5265ft 85kts
31-Jul-18 10:48 36.197176 -115.070710 215 4738ft 106kts
31-Jul-18 10:49 36.173377 -115.090194 220 4096ft 107kts
31-Jul-18 10:50 36.151117 -115.113146 200 3533ft 95kts
31-Jul-18 10:51 36.128892 -115.131827 208 3065ft 88kts
31-Jul-18 10:52 36.110783 -115.147187 201 2836ft 79kts
31-Jul-18 10:53 36.093945 -115.159530 202 2184ft 30kts

Navigation Log

Ident Type
Flight plan parsing failed, navigation log unavailable